Arctic — VCLM — position and weather

sailwx.info

Track history (hours):
 
Tides and Currents Weather Stations Pressure Air Temp Water Temp Dewpoint Dewpoint Depression Visibility Wind Speed Wind Dir Waves Ship Positions

Arctic

Last reported at 2017-Dec-11 16:00 UTC. Time now 2017-Dec-11 17:20 UTC.
Position N 62°06' W 074°42'.

Length 220.8 m; beam 22.9 m; draft 11.5 m.

Type: Ship (hazmat cat A). MMSI: 316056000.

Wind from 230 at 1 knots

Barometer 999.7 mb
Air temperature -12.3 ° C
Dewpoint -18.2 ° C

Date/timePositionNaut miles runAvg speedWind from/ knotsBaromVisibWave heightAir tempDewpointWater temp
2017-Dec-11 16:00N 62°06' W 074°42'0 0.0 230 / 1999.7 -12.3-18.2
2017-Dec-11 15:00N 62°06' W 074°42'0 0.0 080 / 2999.6 -14.0-17.9
2017-Dec-11 14:00N 62°06' W 074°42'0 0.0 140 / 2999.8 -16.1-19.0
2017-Dec-11 13:00N 62°06' W 074°42'0 0.0 150 / 6999.6 -16.2-19.2
2017-Dec-11 12:00N 62°06' W 074°42'0 0.0 140 / 5999.4 -16.1-19.4
2017-Dec-11 11:00N 62°06' W 074°42'0 0.0 140 / 6999.3 -16.3-19.5
2017-Dec-11 10:00N 62°06' W 074°42'0 0.0 150 / 7999.5 -16.3-19.6
2017-Dec-11 09:00N 62°06' W 074°42'0 0.0 140 / 6999.5 -16.0-19.3
2017-Dec-11 07:00N 62°06' W 074°42'0 0.0 130 / 8999.9 -17.1-20.0
2017-Dec-11 06:00N 62°06' W 074°42'0 0.0 140 / 91000.2 -16.3-19.5
2017-Dec-11 05:00N 62°06' W 074°42'0 0.0 140 / 81000.4 -16.0-19.0
2017-Dec-11 04:00N 62°06' W 074°42'0 0.0 150 / 51000.8 -15.8-18.9
2017-Dec-11 03:00N 62°06' W 074°42'0 0.0 140 / 61001.1 -15.7-18.9
2017-Dec-11 02:00N 62°06' W 074°42'0 0.0 140 / 61001.6 -15.8-18.7
2017-Dec-11 01:00N 62°06' W 074°42'0 0.0 150 / 81001.9 -15.6-18.6
2017-Dec-11 00:00N 62°06' W 074°42'0 0.0 140 / 81002.1 -15.4-18.3
2017-Dec-10 23:00N 62°06' W 074°42'0 0.0 150 / 81002.6 -15.3-18.3
2017-Dec-10 22:00N 62°06' W 074°42'0 0.0 160 / 51003.0 -15.0-18.0
2017-Dec-10 21:00N 62°06' W 074°42'0 0.0 150 / 61003.1 -14.7-17.8
2017-Dec-10 20:00N 62°06' W 074°42'0 0.0 140 / 71003.1 -14.7-17.5
2017-Dec-10 19:00N 62°06' W 074°42'0 0.0 160 / 51003.4 -14.6-17.9
2017-Dec-10 18:00N 62°06' W 074°42'0 0.0 140 / 91003.6 -14.2-17.7
2017-Dec-10 17:00N 62°06' W 074°42'0 0.0 150 / 61004.1 -13.8-17.6
2017-Dec-10 16:00N 62°06' W 074°42'0 0.0 110 / 111004.6 -14.0-17.7
2017-Dec-10 15:00N 62°06' W 074°42'0 0.0 100 / 101004.9 -13.9-17.3
2017-Dec-10 14:00N 62°06' W 074°42'0 0.0 100 / 81005.3 -12.9-17.0
2017-Dec-10 13:00N 62°06' W 074°42'0 0.0 360 / 11005.9 -10.2-15.9
2017-Dec-10 12:00N 62°06' W 074°42'0 0.0 220 / 91006.4 -12.1-16.6
2017-Dec-10 11:00N 62°06' W 074°42'0 0.0 220 / 81006.3 -11.7-16.2
2017-Dec-10 10:00N 62°06' W 074°42'0 0.0 130 / 41006.5 -11.7-16.0
2017-Dec-10 08:00N 62°06' W 074°42'0 0.0 220 / 151006.1 -11.5-15.8
2017-Dec-10 07:00N 62°06' W 074°42'0 0.0 240 / 131005.9 -11.0-15.8
2017-Dec-10 06:00N 62°06' W 074°42'0 0.0 240 / 121005.8 -10.9-16.0
2017-Dec-10 05:00N 62°06' W 074°42'0 0.0 240 / 121005.8 -11.2-15.8
2017-Dec-10 04:00N 62°06' W 074°42'0 0.0 250 / 101006.1 -11.6-15.8
2017-Dec-10 03:00N 62°06' W 074°42'0 0.0 180 / 41005.7 -12.6-17.0
2017-Dec-10 02:00N 62°06' W 074°42'0 0.0 190 / 11005.7 -11.9-16.1
2017-Dec-10 01:00N 62°06' W 074°42'0 0.0 240 / 11005.6 -11.3-15.5
2017-Dec-10 00:00N 62°06' W 074°42'0 0.0 220 / 41005.2 -11.2-15.7
2017-Dec-09 23:00N 62°06' W 074°42'0 0.0 260 / 61004.6 -10.4-15.7
2017-Dec-09 22:00N 62°06' W 074°42'0 0.0 260 / 101003.9 -10.5-15.9
2017-Dec-09 21:00N 62°06' W 074°42'0 0.0 250 / 131002.9 -10.3-16.1
2017-Dec-09 20:00N 62°06' W 074°42'0 0.0 250 / 131002.1 -10.3-16.1
2017-Dec-09 19:00N 62°06' W 074°42'0 0.0 260 / 161001.5 -10.3-15.8
2017-Dec-09 18:00N 62°06' W 074°42'0 0.0 250 / 111001.1 -10.3-15.5
2017-Dec-09 17:00N 62°06' W 074°42'0 0.0 240 / 131000.7 -10.5-15.4
2017-Dec-09 16:00N 62°06' W 074°42'0 0.0 250 / 171000.1 -10.5-15.8
2017-Dec-09 15:00N 62°06' W 074°42'0 0.0 250 / 16999.8 -10.6-15.4
2017-Dec-09 14:00N 62°06' W 074°42'0 0.0 240 / 13999.6 -10.7-15.6
2017-Dec-09 13:00N 62°06' W 074°42'0 0.0 220 / 12999.4 -10.5-15.3
2017-Dec-09 12:00N 62°06' W 074°42'0 0.0 240 / 15999.0 -10.3-15.1
2017-Dec-09 11:00N 62°06' W 074°42'0 0.0 220 / 5998.7 -9.8-14.9
2017-Dec-09 10:00N 62°06' W 074°42'0 0.0 220 / 6998.3 -9.8-14.4
2017-Dec-09 09:00N 62°06' W 074°42'0 0.0 240 / 14997.0 -9.6-14.3
2017-Dec-09 08:00N 62°06' W 074°42'0 0.0 240 / 10996.4 -9.2-13.8
2017-Dec-09 07:00N 62°06' W 074°42'0 0.0 220 / 13995.9 -8.8-13.8
2017-Dec-09 06:00N 62°06' W 074°42'0 0.0 250 / 17995.2 -8.5-13.2
2017-Dec-09 05:00N 62°06' W 074°42'0 0.0 250 / 21994.6 -8.3-12.8
2017-Dec-09 04:00N 62°06' W 074°42'0 0.0 250 / 20994.2 -8.6-13.0
2017-Dec-09 03:00N 62°06' W 074°42'0 0.0 250 / 19994.4 -8.6-13.3
2017-Dec-09 02:00N 62°06' W 074°42'0 0.0 250 / 22993.9 -8.8-13.1
2017-Dec-09 01:00N 62°06' W 074°42'0 0.0 250 / 13994.2 -8.6-13.7
2017-Dec-09 00:00N 62°06' W 074°42'0 0.0 250 / 21992.9 -8.5-13.5
2017-Dec-08 23:00N 62°06' W 074°42'0 0.0 270 / 13992.9 -8.3-12.9
2017-Dec-08 22:00N 62°06' W 074°42'0 0.0 270 / 17992.0 -7.9-12.6
2017-Dec-08 21:00N 62°06' W 074°42'0 0.0 270 / 16991.1 -7.7-12.4
2017-Dec-08 20:00N 62°06' W 074°42'0 0.0 270 / 10990.7 -7.6-12.3
2017-Dec-08 19:00N 62°06' W 074°42'0 0.0 270 / 18989.3 -7.4-12.1
2017-Dec-08 18:00N 62°06' W 074°42'0 0.0 260 / 18988.5 -7.3-11.8
2017-Dec-08 17:00N 62°06' W 074°42'0 0.0 240 / 20987.3 -7.6-11.8
2017-Dec-08 16:00N 62°06' W 074°42'0 0.0 220 / 19986.7 -7.5-11.7
2017-Dec-08 15:00N 62°06' W 074°42'0 0.0 220 / 22986.1 -6.8-11.0
2017-Dec-08 14:00N 62°06' W 074°42'0 0.0 220 / 17985.9 -6.4-10.5
2017-Dec-08 13:00N 62°06' W 074°42'0 0.0 250 / 13985.5 -5.9-9.6
2017-Dec-08 12:00N 62°06' W 074°42'0 0.0 250 / 15984.8 -5.4-9.2
2017-Dec-08 11:00N 62°06' W 074°42'0 0.0 260 / 16984.4 -5.0-8.8
2017-Dec-08 10:00N 62°06' W 074°42'0 0.0 290 / 8984.0 -4.1-7.7
2017-Dec-08 09:00N 62°06' W 074°42'0 0.0 290 / 10983.5 -4.0-7.5
2017-Dec-08 08:00N 62°06' W 074°42'0 0.0 290 / 13983.1 -3.7-7.0
2017-Dec-08 07:00N 62°06' W 074°42'0 0.0 290 / 15982.8 -3.8-6.5
2017-Dec-08 06:00N 62°06' W 074°42'0 0.0 300 / 10982.6 -3.4-5.8
2017-Dec-08 05:00N 62°06' W 074°42'0 0.0 300 / 4982.5 -3.0-4.6
2017-Dec-08 04:00N 62°06' W 074°42'0 0.0 300 / 5982.8 -3.2-4.4
2017-Dec-08 03:00N 62°06' W 074°42'0 0.0 310 / 7982.8 -3.2-4.8
2017-Dec-08 02:00N 62°06' W 074°42'0 0.0 310 / 8983.0 -3.1-4.3
2017-Dec-08 01:00N 62°06' W 074°42'0 0.0 310 / 7982.9 -3.2-4.6
2017-Dec-08 00:00N 62°06' W 074°42'0 0.0 310 / 4982.9 -3.0-4.3
2017-Dec-07 23:00N 62°06' W 074°42'0 0.0 300 / 4983.0 -3.3-5.0
2017-Dec-07 22:00N 62°06' W 074°42'0 0.0 310 / 4982.5 -3.0-5.2
2017-Dec-07 21:00N 62°06' W 074°42'0 0.0 310 / 3981.9 -2.6-4.3
2017-Dec-07 20:00N 62°06' W 074°42'0 0.0 310 / 4981.3 -2.5-4.2
2017-Dec-07 19:00N 62°06' W 074°42'0 0.0 360 / 4981.1 -2.2-3.2
2017-Dec-07 18:00N 62°06' W 074°42'0 0.0 320 / 8980.5 -1.8-2.2
2017-Dec-07 17:00N 62°06' W 074°42'0 0.0 310 / 12980.7 -2.3-2.8
2017-Dec-07 16:00N 62°06' W 074°42'0 0.0 310 / 12980.9 -2.3-3.0
2017-Dec-07 15:00N 62°06' W 074°42'0 0.0 310 / 13981.1 -2.3-2.9
2017-Dec-07 14:00N 62°06' W 074°42'0 0.0 310 / 13981.4 -2.1-2.6
2017-Dec-07 13:00N 62°06' W 074°42'0 0.0 310 / 12981.9 -1.8-2.2
2017-Dec-07 12:00N 62°06' W 074°42'0 0.0 310 / 9982.5 -1.6-2.3
2017-Dec-07 11:00N 62°06' W 074°42'0 0.0 320 / 6983.2 -1.4-2.3
2017-Dec-07 10:00N 62°06' W 074°42'0 0.0 350 / 4983.5 -0.7-2.4
2017-Dec-07 09:00N 62°06' W 074°42'0 0.0 020 / 8983.8 -1.8-3.2
2017-Dec-07 08:00N 62°06' W 074°42'0 0.0 040 / 10984.1 -2.1-3.3
2017-Dec-07 07:00N 62°06' W 074°42'0 0.0 010 / 7984.8 -1.2-3.1
2017-Dec-07 06:00N 62°06' W 074°42'0 0.0 340 / 1985.4 -0.7-1.8
2017-Dec-07 05:00N 62°06' W 074°42'0 0.0 330 / 3986.1 -1.5-2.0
2017-Dec-07 04:00N 62°06' W 074°42'0 0.0 310 / 7987.0 -1.7-2.2
2017-Dec-07 03:00N 62°06' W 074°42'0 0.0 320 / 6987.8 -1.4-2.2
2017-Dec-07 02:00N 62°06' W 074°42'0 0.0 310 / 5988.9 -1.9-2.6
2017-Dec-07 01:00N 62°06' W 074°42'0 0.0 320 / 4990.1 -2.2-3.4
2017-Dec-07 00:00N 62°06' W 074°42'0 0.0 310 / 4991.2 -2.7-4.4
2017-Dec-06 23:00N 62°06' W 074°42'0 0.0 310 / 5991.5 -2.9-4.8
2017-Dec-06 22:00N 62°06' W 074°42'0 0.0 330 / 2992.3 -2.7-5.5
2017-Dec-06 21:00N 62°06' W 074°42'0 0.0 270 / 2992.7 -4.0-5.9
2017-Dec-06 20:00N 62°06' W 074°42'0 0.0 992.5 -4.7-6.6
2017-Dec-06 19:00N 62°06' W 074°42'0 0.0 080 / 4992.7 -2.9-5.7
2017-Dec-06 18:00N 62°06' W 074°42'0 0.0 080 / 7993.2 -3.6-5.9
2017-Dec-06 17:00N 62°06' W 074°42'0 0.0 170 / 1993.7 -2.9-5.2
2017-Dec-06 16:00N 62°06' W 074°42'0 0.0 070 / 6994.4 -3.0-5.0
2017-Dec-06 15:00N 62°06' W 074°42'0 0.0 180 / 2995.3 -2.6-4.7
2017-Dec-06 14:00N 62°06' W 074°42'0 0.0 160 / 10995.7 -2.6-3.5
2017-Dec-06 13:00N 62°06' W 074°42'0 0.0 080 / 14996.9 -2.7-4.1
2017-Dec-06 12:00N 62°06' W 074°42'0 0.0 080 / 13997.6 -2.9-3.9
2017-Dec-06 11:00N 62°06' W 074°42'0 0.0 080 / 18998.5 -2.8-4.0
2017-Dec-06 10:00N 62°06' W 074°42'0 0.0 070 / 17999.5 -2.7-4.7
2017-Dec-06 09:00N 62°06' W 074°42'0 0.0 060 / 141001.3 -3.2-5.0
2017-Dec-06 08:00N 62°06' W 074°42'0 0.0 060 / 161002.5 -3.1-5.4
2017-Dec-06 07:00N 62°06' W 074°42'0 0.0 070 / 121003.8 -3.4-5.5
2017-Dec-06 06:00N 62°06' W 074°42'0 0.0 060 / 121005.2 -3.9-5.8
2017-Dec-06 05:00N 62°06' W 074°42'0 0.0 030 / 71006.8 -4.9-6.6
2017-Dec-06 04:00N 62°06' W 074°42'0 0.0 070 / 181007.7 -5.1-6.3
2017-Dec-06 03:00N 62°06' W 074°42'0 0.0 150 / 31009.2 -5.4-6.6
2017-Dec-06 02:00N 62°06' W 074°42'0 0.0 310 / 61010.6 -7.0-8.4
2017-Dec-06 01:00N 62°06' W 074°42'0 0.0 280 / 21012.5 -10.2-12.4
2017-Dec-06 00:00N 62°06' W 074°42'0 0.0 1013.8 -11.3-14.2
2017-Dec-05 23:00N 62°06' W 074°42'0 0.0 140 / 51015.2 -12.7-15.3
2017-Dec-05 22:00N 62°06' W 074°42'0 0.0 150 / 31016.0 -12.5-15.6
2017-Dec-05 21:00N 62°06' W 074°42'0 0.0 170 / 41017.0 -12.7-15.5
2017-Dec-05 20:00N 62°06' W 074°42'0 0.0 130 / 51017.5 -12.8-15.5
2017-Dec-05 19:00N 62°06' W 074°42'0 0.0 130 / 61018.4 -12.6-15.5
2017-Dec-05 18:00N 62°06' W 074°42'0 0.0 130 / 81018.7 -12.2-15.5
2017-Dec-05 17:00N 62°06' W 074°42'0 0.0 140 / 81019.5 -12.1-15.5
2017-Dec-05 16:00N 62°06' W 074°42'0 0.0 150 / 91020.0 -12.0-15.4
2017-Dec-05 15:00N 62°06' W 074°42'0 0.0 150 / 101020.4 -11.5-14.9
2017-Dec-05 14:00N 62°06' W 074°42'0 0.0 120 / 51021.0 -10.7-13.8
2017-Dec-05 13:00N 62°06' W 074°42'0 0.0 210 / 31021.5 -9.5-13.6
2017-Dec-05 12:00N 62°06' W 074°42'0 0.0 200 / 91021.6 -9.6-13.8
2017-Dec-05 11:00N 62°06' W 074°42'0 0.0 210 / 121021.4 -8.6-13.1
2017-Dec-05 10:00N 62°06' W 074°42'0 0.0 210 / 111021.7 -8.1-12.7
2017-Dec-05 09:00N 62°06' W 074°42'0 0.0 180 / 71021.5 -8.0-12.7
2017-Dec-05 08:00N 62°06' W 074°42'0 0.0 250 / 171020.6 -7.8-12.3
2017-Dec-05 07:00N 62°06' W 074°42'0 0.0 160 / 21021.6 -7.8-12.2
2017-Dec-05 06:00N 62°06' W 074°42'0 0.0 200 / 71021.0 -7.8-12.1
2017-Dec-05 05:00N 62°06' W 074°42'0 0.0 200 / 111020.5 -7.6-11.6
2017-Dec-05 04:00N 62°06' W 074°42'0 0.0 130 / 11019.9 -7.5-11.6
2017-Dec-05 03:00N 62°06' W 074°42'0 0.0 220 / 201018.5 -7.3-12.0
2017-Dec-05 02:00N 62°06' W 074°42'0 0.0 220 / 291017.5 -7.4-12.3
2017-Dec-05 01:00N 62°06' W 074°42'0 0.0 210 / 71018.7 -7.5-12.1
2017-Dec-05 00:00N 62°06' W 074°42'0 0.0 220 / 91019.0 -8.0-12.6
2017-Dec-04 23:00N 62°06' W 074°42'0 0.0 100 / 41019.0 -8.2-13.1
2017-Dec-04 22:00N 62°06' W 074°42'0 0.0 230 / 91018.7 -8.4-13.1
2017-Dec-04 21:00N 62°06' W 074°42'0 0.0 250 / 181017.0 -8.0-13.5
2017-Dec-04 20:00N 62°06' W 074°42'0 0.0 240 / 81017.6 -8.5-13.3
2017-Dec-04 19:00N 62°06' W 074°42'0 0.0 210 / 141016.1 -8.6-13.7
2017-Dec-04 18:00N 62°06' W 074°42'0 0.0 240 / 211013.7 -9.0-13.9
2017-Dec-04 17:00N 62°06' W 074°42'0 0.0 240 / 331012.4 -9.2-14.1
2017-Dec-04 16:00N 62°06' W 074°42'0 0.0 240 / 301012.1 -8.8-14.3
2017-Dec-04 15:00N 62°06' W 074°42'0 0.0 240 / 371010.5 -8.5-13.4-0.6
2017-Dec-04 14:00N 62°06' W 074°42'6 6.0 230 / 71010.8 -6.1-11.1-0.4
2017-Dec-04 13:00N 62°12' W 074°42'3 2.8 250 / 161010.3 -4.1-9.9-0.7
2017-Dec-04 12:00N 62°12' W 074°48'7 6.6 250 / 161009.3 -3.0-7.9-0.6
2017-Dec-04 11:00N 62°18' W 074°42'1514.6 270 / 231007.3 -2.0-5.6-0.4
2017-Dec-04 10:00N 62°30' W 074°24'1413.9 220 / 181007.2 -1.3-4.5-0.5
2017-Dec-04 09:00N 62°30' W 073°54'1010.2 180 / 221008.1 -1.5-5.3-0.5
2017-Dec-04 08:00N 62°36' W 073°36'1312.6 170 / 271007.9 -2.5-6.5-0.4
2017-Dec-04 07:00N 62°30' W 073°12'1111.1 160 / 171010.3 -2.7-6.4-0.5
2017-Dec-04 06:00N 62°30' W 072°48'1312.6 170 / 261011.0 -3.4-7.5-1.0
2017-Dec-04 05:00N 62°24' W 072°24'1312.7 170 / 271011.9 -3.4-6.2-0.6
2017-Dec-04 04:00N 62°18' W 072°00'1312.7 160 / 301012.7 -3.8-6.5-0.7
2017-Dec-04 03:00N 62°12' W 071°36'1111.2 150 / 321013.5 -4.9-6.1-1.0
2017-Dec-04 02:00N 62°12' W 071°12'1515.2 150 / 281015.5 -5.6-7.1-1.0
2017-Dec-04 01:00N 62°06' W 070°42'1616.5 150 / 261017.1 -5.4-7.9-0.4
2017-Dec-04 00:00N 61°54' W 070°18'1414.1 160 / 231018.2 -5.6-8.1-0.5
2017-Dec-03 23:00N 61°54' W 069°48'1312.8 160 / 161019.0 -5.6-8.4-0.7
2017-Dec-03 22:00N 61°48' W 069°24'1515.4 150 / 121019.8 -5.1-8.7-0.4
2017-Dec-03 21:00N 61°42' W 068°54'1312.9 190 / 81020.2 -4.8-9.3-0.3
2017-Dec-03 20:00N 61°36' W 068°30'1111.4 090 / 91020.2 -4.9-8.7-0.7
2017-Dec-03 19:00N 61°36' W 068°06'1615.5 060 / 61020.3 -4.8-8.6-0.9
2017-Dec-03 18:00N 61°30' W 067°36'1312.9 230 / 51019.9 -4.7-9.2-0.5
2017-Dec-03 17:00N 61°24' W 067°12'1313.0 250 / 71019.4 -4.5-8.8-0.8
2017-Dec-03 16:00N 61°18' W 066°48'1211.5 230 / 41018.8 -4.3-7.5-0.7
2017-Dec-03 15:00N 61°18' W 066°24'1313.0 240 / 71018.6 -4.5-5.8-0.7
2017-Dec-03 14:00N 61°12' W 066°00'1313.0 230 / 91017.9 -4.1-7.4-1.1
2017-Dec-03 13:00N 61°06' W 065°36'1918.9 250 / 91017.5 -4.2-7.8-1.0
2017-Dec-03 12:00N 60°54' W 065°06'1514.6 250 / 131016.6 -4.0-7.3-0.8
2017-Dec-03 11:00N 60°54' W 064°36'1615.8 240 / 161016.4 -3.7-7.4-0.4
2017-Dec-03 10:00N 60°48' W 064°06'1514.9 220 / 191016.2 -4.4-6.7 0.3
2017-Dec-03 09:00N 60°36' W 063°48'1514.9 230 / 151016.5 -4.7-7.5 0.3
2017-Dec-03 08:00N 60°24' W 063°30'1313.4 240 / 111017.2 -5.1-7.7-0.0
2017-Dec-03 07:00N 60°12' W 063°18'1313.4 240 / 81017.2 -3.8-9.9 0.1
2017-Dec-03 06:00N 60°06' W 062°54'1313.4 220 / 71017.1 -3.9-10.3 0.4
2017-Dec-03 05:00N 59°54' W 062°42'1313.4 210 / 71016.9 -4.0-10.5 0.5
2017-Dec-03 04:00N 59°42' W 062°30'1515.1 200 / 101017.3 -4.2-9.8-0.0
2017-Dec-03 03:00N 59°30' W 062°12'1110.9 180 / 51017.6 -4.1-10.7-0.0
2017-Dec-03 02:00N 59°24' W 061°54'1515.1 210 / 61018.0 -4.2-8.7 0.4
2017-Dec-03 01:00N 59°12' W 061°36'2020.2 190 / 91018.3 -4.1-8.9 0.3
2017-Dec-03 00:00N 58°54' W 061°18'9 8.6 200 / 111018.3 -4.3-10.6 0.4
2017-Dec-02 23:00N 58°48' W 061°06'1515.2 210 / 131018.8 -4.2-10.2 0.3
2017-Dec-02 22:00N 58°36' W 060°48'1515.2 240 / 111019.1 -4.1-10.2 0.3
2017-Dec-02 21:00N 58°24' W 060°30'1515.3 250 / 61019.5 -4.1-9.1 0.2
2017-Dec-02 20:00N 58°12' W 060°12'9 8.7 260 / 71019.6 -3.7-8.1 0.1
2017-Dec-02 19:00N 58°06' W 060°00'1413.6 280 / 91019.0 -3.1-7.1-0.0
2017-Dec-02 18:00N 57°54' W 059°48'1515.4 280 / 111018.9 -2.8-6.0 0.2
2017-Dec-02 17:00N 57°42' W 059°30'9 8.8 290 / 111018.7 -2.8-4.9-0.0
2017-Dec-02 16:00N 57°36' W 059°18'1413.6 270 / 131018.6 -2.8-5.5 0.2
2017-Dec-02 15:00N 57°24' W 059°06'1111.4
2017-Dec-02 14:00N 57°18' W 058°48'1413.6 260 / 71019.3 -3.0-7.2-0.1
2017-Dec-02 13:00N 57°06' W 058°36'1413.7 250 / 91019.1 -3.3-8.0 0.2
2017-Dec-02 12:00N 56°54' W 058°24'1615.5 300 / 101018.7 -2.7-6.7 0.1
2017-Dec-02 11:00N 56°42' W 058°06'9 8.9 260 / 131018.1 -2.3-6.7 0.1
2017-Dec-02 10:00N 56°36' W 057°54'1413.7 260 / 131018.2 -1.9-6.9 0.4
2017-Dec-02 09:00N 56°24' W 057°42'1615.6 260 / 141017.8 -1.6-6.4 0.1
2017-Dec-02 08:00N 56°12' W 057°24'9 9.0 260 / 121018.0 -1.3-5.9 0.1
2017-Dec-02 07:00N 56°06' W 057°12'1615.7 250 / 141018.1 -1.0-4.9 0.2
2017-Dec-02 06:00N 55°54' W 056°54'7 6.9 260 / 81018.0 -0.5-3.4 0.2
2017-Dec-02 05:00N 55°48' W 056°48'1413.8 240 / 111017.9 -0.2-3.4 0.2
2017-Dec-02 04:00N 55°36' W 056°36'1211.8 220 / 121018.1 -0.0-2.2-0.0
2017-Dec-02 03:00N 55°30' W 056°18'1413.8 210 / 111017.9 0.3-1.2 0.6
2017-Dec-02 02:00N 55°18' W 056°06'1413.8 210 / 151017.9 0.5-0.9 0.7
2017-Dec-02 01:00N 55°06' W 055°54'1413.8 200 / 201018.5 0.7-1.2 0.8
2017-Dec-02 00:00N 54°54' W 055°42'1212.0 190 / 191018.5 0.5-1.4 0.4
2017-Dec-01 23:00N 54°48' W 055°24'1212.0 190 / 241018.5 0.6-1.4 0.9
2017-Dec-01 22:00N 54°36' W 055°24'1818.3 190 / 211018.7 0.7-1.5 0.8
2017-Dec-01 21:00N 54°18' W 055°18'1212.0 190 / 221019.0 0.8-1.5 0.8
2017-Dec-01 20:00N 54°06' W 055°18'1312.5 180 / 211019.2 1.6-1.4 1.0
2017-Dec-01 19:00N 53°54' W 055°24'1818.3 190 / 211019.5 0.8-1.7 1.1
2017-Dec-01 18:00N 53°36' W 055°18'1212.0 200 / 201019.7 0.7-1.9 1.3
2017-Dec-01 17:00N 53°24' W 055°18'1212.0 180 / 231019.7 1.6-2.0 1.2
2017-Dec-01 16:00N 53°12' W 055°18'   180 / 171020.5 2.2-1.0 1.2
Track history (hours):
 
Tides and Currents Weather Stations Pressure Air Temp Water Temp Dewpoint Dewpoint Depression Visibility Wind Speed Wind Dir Waves Ship Positions

Arctic

Last reported at 2017-Dec-11 16:00 UTC. Time now 2017-Dec-11 17:20 UTC.
Position N 62°06' W 074°42'.

Length 220.8 m; beam 22.9 m; draft 11.5 m.

Type: Ship (hazmat cat A). MMSI: 316056000.

Wind from 230 at 1 knots

Barometer 999.7 mb
Air temperature -12.3 ° C
Dewpoint -18.2 ° C

Date/timePositionNaut miles runAvg speedWind from/ knotsBaromVisibWave heightAir tempDewpointWater temp
2017-Dec-11 16:00N 62°06' W 074°42'0 0.0 230 / 1999.7 -12.3-18.2
2017-Dec-11 15:00N 62°06' W 074°42'0 0.0 080 / 2999.6 -14.0-17.9
2017-Dec-11 14:00N 62°06' W 074°42'0 0.0 140 / 2999.8 -16.1-19.0
2017-Dec-11 13:00N 62°06' W 074°42'0 0.0 150 / 6999.6 -16.2-19.2
2017-Dec-11 12:00N 62°06' W 074°42'0 0.0 140 / 5999.4 -16.1-19.4
2017-Dec-11 11:00N 62°06' W 074°42'0 0.0 140 / 6999.3 -16.3-19.5
2017-Dec-11 10:00N 62°06' W 074°42'0 0.0 150 / 7999.5 -16.3-19.6
2017-Dec-11 09:00N 62°06' W 074°42'0 0.0 140 / 6999.5 -16.0-19.3
2017-Dec-11 07:00N 62°06' W 074°42'0 0.0 130 / 8999.9 -17.1-20.0
2017-Dec-11 06:00N 62°06' W 074°42'0 0.0 140 / 91000.2 -16.3-19.5
2017-Dec-11 05:00N 62°06' W 074°42'0 0.0 140 / 81000.4 -16.0-19.0
2017-Dec-11 04:00N 62°06' W 074°42'0 0.0 150 / 51000.8 -15.8-18.9
2017-Dec-11 03:00N 62°06' W 074°42'0 0.0 140 / 61001.1 -15.7-18.9
2017-Dec-11 02:00N 62°06' W 074°42'0 0.0 140 / 61001.6 -15.8-18.7
2017-Dec-11 01:00N 62°06' W 074°42'0 0.0 150 / 81001.9 -15.6-18.6
2017-Dec-11 00:00N 62°06' W 074°42'0 0.0 140 / 81002.1 -15.4-18.3
2017-Dec-10 23:00N 62°06' W 074°42'0 0.0 150 / 81002.6 -15.3-18.3
2017-Dec-10 22:00N 62°06' W 074°42'0 0.0 160 / 51003.0 -15.0-18.0
2017-Dec-10 21:00N 62°06' W 074°42'0 0.0 150 / 61003.1 -14.7-17.8
2017-Dec-10 20:00N 62°06' W 074°42'0 0.0 140 / 71003.1 -14.7-17.5
2017-Dec-10 19:00N 62°06' W 074°42'0 0.0 160 / 51003.4 -14.6-17.9
2017-Dec-10 18:00N 62°06' W 074°42'0 0.0 140 / 91003.6 -14.2-17.7
2017-Dec-10 17:00N 62°06' W 074°42'0 0.0 150 / 61004.1 -13.8-17.6
2017-Dec-10 16:00N 62°06' W 074°42'0 0.0 110 / 111004.6 -14.0-17.7
2017-Dec-10 15:00N 62°06' W 074°42'0 0.0 100 / 101004.9 -13.9-17.3
2017-Dec-10 14:00N 62°06' W 074°42'0 0.0 100 / 81005.3 -12.9-17.0
2017-Dec-10 13:00N 62°06' W 074°42'0 0.0 360 / 11005.9 -10.2-15.9
2017-Dec-10 12:00N 62°06' W 074°42'0 0.0 220 / 91006.4 -12.1-16.6
2017-Dec-10 11:00N 62°06' W 074°42'0 0.0 220 / 81006.3 -11.7-16.2
2017-Dec-10 10:00N 62°06' W 074°42'0 0.0 130 / 41006.5 -11.7-16.0
2017-Dec-10 08:00N 62°06' W 074°42'0 0.0 220 / 151006.1 -11.5-15.8
2017-Dec-10 07:00N 62°06' W 074°42'0 0.0 240 / 131005.9 -11.0-15.8
2017-Dec-10 06:00N 62°06' W 074°42'0 0.0 240 / 121005.8 -10.9-16.0
2017-Dec-10 05:00N 62°06' W 074°42'0 0.0 240 / 121005.8 -11.2-15.8
2017-Dec-10 04:00N 62°06' W 074°42'0 0.0 250 / 101006.1 -11.6-15.8
2017-Dec-10 03:00N 62°06' W 074°42'0 0.0 180 / 41005.7 -12.6-17.0
2017-Dec-10 02:00N 62°06' W 074°42'0 0.0 190 / 11005.7 -11.9-16.1
2017-Dec-10 01:00N 62°06' W 074°42'0 0.0 240 / 11005.6 -11.3-15.5
2017-Dec-10 00:00N 62°06' W 074°42'0 0.0 220 / 41005.2 -11.2-15.7
2017-Dec-09 23:00N 62°06' W 074°42'0 0.0 260 / 61004.6 -10.4-15.7
2017-Dec-09 22:00N 62°06' W 074°42'0 0.0 260 / 101003.9 -10.5-15.9
2017-Dec-09 21:00N 62°06' W 074°42'0 0.0 250 / 131002.9 -10.3-16.1
2017-Dec-09 20:00N 62°06' W 074°42'0 0.0 250 / 131002.1 -10.3-16.1
2017-Dec-09 19:00N 62°06' W 074°42'0 0.0 260 / 161001.5 -10.3-15.8
2017-Dec-09 18:00N 62°06' W 074°42'0 0.0 250 / 111001.1 -10.3-15.5
2017-Dec-09 17:00N 62°06' W 074°42'0 0.0 240 / 131000.7 -10.5-15.4
2017-Dec-09 16:00N 62°06' W 074°42'0 0.0 250 / 171000.1 -10.5-15.8
2017-Dec-09 15:00N 62°06' W 074°42'0 0.0 250 / 16999.8 -10.6-15.4
2017-Dec-09 14:00N 62°06' W 074°42'0 0.0 240 / 13999.6 -10.7-15.6
2017-Dec-09 13:00N 62°06' W 074°42'0 0.0 220 / 12999.4 -10.5-15.3
2017-Dec-09 12:00N 62°06' W 074°42'0 0.0 240 / 15999.0 -10.3-15.1
2017-Dec-09 11:00N 62°06' W 074°42'0 0.0 220 / 5998.7 -9.8-14.9
2017-Dec-09 10:00N 62°06' W 074°42'0 0.0 220 / 6998.3 -9.8-14.4
2017-Dec-09 09:00N 62°06' W 074°42'0 0.0 240 / 14997.0 -9.6-14.3
2017-Dec-09 08:00N 62°06' W 074°42'0 0.0 240 / 10996.4 -9.2-13.8
2017-Dec-09 07:00N 62°06' W 074°42'0 0.0 220 / 13995.9 -8.8-13.8
2017-Dec-09 06:00N 62°06' W 074°42'0 0.0 250 / 17995.2 -8.5-13.2
2017-Dec-09 05:00N 62°06' W 074°42'0 0.0 250 / 21994.6 -8.3-12.8
2017-Dec-09 04:00N 62°06' W 074°42'0 0.0 250 / 20994.2 -8.6-13.0
2017-Dec-09 03:00N 62°06' W 074°42'0 0.0 250 / 19994.4 -8.6-13.3
2017-Dec-09 02:00N 62°06' W 074°42'0 0.0 250 / 22993.9 -8.8-13.1
2017-Dec-09 01:00N 62°06' W 074°42'0 0.0 250 / 13994.2 -8.6-13.7
2017-Dec-09 00:00N 62°06' W 074°42'0 0.0 250 / 21992.9 -8.5-13.5
2017-Dec-08 23:00N 62°06' W 074°42'0 0.0 270 / 13992.9 -8.3-12.9
2017-Dec-08 22:00N 62°06' W 074°42'0 0.0 270 / 17992.0 -7.9-12.6
2017-Dec-08 21:00N 62°06' W 074°42'0 0.0 270 / 16991.1 -7.7-12.4
2017-Dec-08 20:00N 62°06' W 074°42'0 0.0 270 / 10990.7 -7.6-12.3
2017-Dec-08 19:00N 62°06' W 074°42'0 0.0 270 / 18989.3 -7.4-12.1
2017-Dec-08 18:00N 62°06' W 074°42'0 0.0 260 / 18988.5 -7.3-11.8
2017-Dec-08 17:00N 62°06' W 074°42'0 0.0 240 / 20987.3 -7.6-11.8
2017-Dec-08 16:00N 62°06' W 074°42'0 0.0 220 / 19986.7 -7.5-11.7
2017-Dec-08 15:00N 62°06' W 074°42'0 0.0 220 / 22986.1 -6.8-11.0
2017-Dec-08 14:00N 62°06' W 074°42'0 0.0 220 / 17985.9 -6.4-10.5
2017-Dec-08 13:00N 62°06' W 074°42'0 0.0 250 / 13985.5 -5.9-9.6
2017-Dec-08 12:00N 62°06' W 074°42'0 0.0 250 / 15984.8 -5.4-9.2
2017-Dec-08 11:00N 62°06' W 074°42'0 0.0 260 / 16984.4 -5.0-8.8
2017-Dec-08 10:00N 62°06' W 074°42'0 0.0 290 / 8984.0 -4.1-7.7
2017-Dec-08 09:00N 62°06' W 074°42'0 0.0 290 / 10983.5 -4.0-7.5
2017-Dec-08 08:00N 62°06' W 074°42'0 0.0 290 / 13983.1 -3.7-7.0
2017-Dec-08 07:00N 62°06' W 074°42'0 0.0 290 / 15982.8 -3.8-6.5
2017-Dec-08 06:00N 62°06' W 074°42'0 0.0 300 / 10982.6 -3.4-5.8
2017-Dec-08 05:00N 62°06' W 074°42'0 0.0 300 / 4982.5 -3.0-4.6
2017-Dec-08 04:00N 62°06' W 074°42'0 0.0 300 / 5982.8 -3.2-4.4
2017-Dec-08 03:00N 62°06' W 074°42'0 0.0 310 / 7982.8 -3.2-4.8
2017-Dec-08 02:00N 62°06' W 074°42'0 0.0 310 / 8983.0 -3.1-4.3
2017-Dec-08 01:00N 62°06' W 074°42'0 0.0 310 / 7982.9 -3.2-4.6
2017-Dec-08 00:00N 62°06' W 074°42'0 0.0 310 / 4982.9 -3.0-4.3
2017-Dec-07 23:00N 62°06' W 074°42'0 0.0 300 / 4983.0 -3.3-5.0
2017-Dec-07 22:00N 62°06' W 074°42'0 0.0 310 / 4982.5 -3.0-5.2
2017-Dec-07 21:00N 62°06' W 074°42'0 0.0 310 / 3981.9 -2.6-4.3
2017-Dec-07 20:00N 62°06' W 074°42'0 0.0 310 / 4981.3 -2.5-4.2
2017-Dec-07 19:00N 62°06' W 074°42'0 0.0 360 / 4981.1 -2.2-3.2
2017-Dec-07 18:00N 62°06' W 074°42'0 0.0 320 / 8980.5 -1.8-2.2
2017-Dec-07 17:00N 62°06' W 074°42'0 0.0 310 / 12980.7 -2.3-2.8
2017-Dec-07 16:00N 62°06' W 074°42'0 0.0 310 / 12980.9 -2.3-3.0
2017-Dec-07 15:00N 62°06' W 074°42'0 0.0 310 / 13981.1 -2.3-2.9
2017-Dec-07 14:00N 62°06' W 074°42'0 0.0 310 / 13981.4 -2.1-2.6
2017-Dec-07 13:00N 62°06' W 074°42'0 0.0 310 / 12981.9 -1.8-2.2
2017-Dec-07 12:00N 62°06' W 074°42'0 0.0 310 / 9982.5 -1.6-2.3
2017-Dec-07 11:00N 62°06' W 074°42'0 0.0 320 / 6983.2 -1.4-2.3
2017-Dec-07 10:00N 62°06' W 074°42'0 0.0 350 / 4983.5 -0.7-2.4
2017-Dec-07 09:00N 62°06' W 074°42'0 0.0 020 / 8983.8 -1.8-3.2
2017-Dec-07 08:00N 62°06' W 074°42'0 0.0 040 / 10984.1 -2.1-3.3
2017-Dec-07 07:00N 62°06' W 074°42'0 0.0 010 / 7984.8 -1.2-3.1
2017-Dec-07 06:00N 62°06' W 074°42'0 0.0 340 / 1985.4 -0.7-1.8
2017-Dec-07 05:00N 62°06' W 074°42'0 0.0 330 / 3986.1 -1.5-2.0
2017-Dec-07 04:00N 62°06' W 074°42'0 0.0 310 / 7987.0 -1.7-2.2
2017-Dec-07 03:00N 62°06' W 074°42'0 0.0 320 / 6987.8 -1.4-2.2
2017-Dec-07 02:00N 62°06' W 074°42'0 0.0 310 / 5988.9 -1.9-2.6
2017-Dec-07 01:00N 62°06' W 074°42'0 0.0 320 / 4990.1 -2.2-3.4
2017-Dec-07 00:00N 62°06' W 074°42'0 0.0 310 / 4991.2 -2.7-4.4
2017-Dec-06 23:00N 62°06' W 074°42'0 0.0 310 / 5991.5 -2.9-4.8
2017-Dec-06 22:00N 62°06' W 074°42'0 0.0 330 / 2992.3 -2.7-5.5
2017-Dec-06 21:00N 62°06' W 074°42'0 0.0 270 / 2992.7 -4.0-5.9
2017-Dec-06 20:00N 62°06' W 074°42'0 0.0 992.5 -4.7-6.6
2017-Dec-06 19:00N 62°06' W 074°42'0 0.0 080 / 4992.7 -2.9-5.7
2017-Dec-06 18:00N 62°06' W 074°42'0 0.0 080 / 7993.2 -3.6-5.9
2017-Dec-06 17:00N 62°06' W 074°42'0 0.0 170 / 1993.7 -2.9-5.2
2017-Dec-06 16:00N 62°06' W 074°42'0 0.0 070 / 6994.4 -3.0-5.0
2017-Dec-06 15:00N 62°06' W 074°42'0 0.0 180 / 2995.3 -2.6-4.7
2017-Dec-06 14:00N 62°06' W 074°42'0 0.0 160 / 10995.7 -2.6-3.5
2017-Dec-06 13:00N 62°06' W 074°42'0 0.0 080 / 14996.9 -2.7-4.1
2017-Dec-06 12:00N 62°06' W 074°42'0 0.0 080 / 13997.6 -2.9-3.9
2017-Dec-06 11:00N 62°06' W 074°42'0 0.0 080 / 18998.5 -2.8-4.0
2017-Dec-06 10:00N 62°06' W 074°42'0 0.0 070 / 17999.5 -2.7-4.7
2017-Dec-06 09:00N 62°06' W 074°42'0 0.0 060 / 141001.3 -3.2-5.0
2017-Dec-06 08:00N 62°06' W 074°42'0 0.0 060 / 161002.5 -3.1-5.4
2017-Dec-06 07:00N 62°06' W 074°42'0 0.0 070 / 121003.8 -3.4-5.5
2017-Dec-06 06:00N 62°06' W 074°42'0 0.0 060 / 121005.2 -3.9-5.8
2017-Dec-06 05:00N 62°06' W 074°42'0 0.0 030 / 71006.8 -4.9-6.6
2017-Dec-06 04:00N 62°06' W 074°42'0 0.0 070 / 181007.7 -5.1-6.3
2017-Dec-06 03:00N 62°06' W 074°42'0 0.0 150 / 31009.2 -5.4-6.6
2017-Dec-06 02:00N 62°06' W 074°42'0 0.0 310 / 61010.6 -7.0-8.4
2017-Dec-06 01:00N 62°06' W 074°42'0 0.0 280 / 21012.5 -10.2-12.4
2017-Dec-06 00:00N 62°06' W 074°42'0 0.0 1013.8 -11.3-14.2
2017-Dec-05 23:00N 62°06' W 074°42'0 0.0 140 / 51015.2 -12.7-15.3
2017-Dec-05 22:00N 62°06' W 074°42'0 0.0 150 / 31016.0 -12.5-15.6
2017-Dec-05 21:00N 62°06' W 074°42'0 0.0 170 / 41017.0 -12.7-15.5
2017-Dec-05 20:00N 62°06' W 074°42'0 0.0 130 / 51017.5 -12.8-15.5
2017-Dec-05 19:00N 62°06' W 074°42'0 0.0 130 / 61018.4 -12.6-15.5
2017-Dec-05 18:00N 62°06' W 074°42'0 0.0 130 / 81018.7 -12.2-15.5
2017-Dec-05 17:00N 62°06' W 074°42'0 0.0 140 / 81019.5 -12.1-15.5
2017-Dec-05 16:00N 62°06' W 074°42'0 0.0 150 / 91020.0 -12.0-15.4
2017-Dec-05 15:00N 62°06' W 074°42'0 0.0 150 / 101020.4 -11.5-14.9
2017-Dec-05 14:00N 62°06' W 074°42'0 0.0 120 / 51021.0 -10.7-13.8
2017-Dec-05 13:00N 62°06' W 074°42'0 0.0 210 / 31021.5 -9.5-13.6
2017-Dec-05 12:00N 62°06' W 074°42'0 0.0 200 / 91021.6 -9.6-13.8
2017-Dec-05 11:00N 62°06' W 074°42'0 0.0 210 / 121021.4 -8.6-13.1
2017-Dec-05 10:00N 62°06' W 074°42'0 0.0 210 / 111021.7 -8.1-12.7
2017-Dec-05 09:00N 62°06' W 074°42'0 0.0 180 / 71021.5 -8.0-12.7
2017-Dec-05 08:00N 62°06' W 074°42'0 0.0 250 / 171020.6 -7.8-12.3
2017-Dec-05 07:00N 62°06' W 074°42'0 0.0 160 / 21021.6 -7.8-12.2
2017-Dec-05 06:00N 62°06' W 074°42'0 0.0 200 / 71021.0 -7.8-12.1
2017-Dec-05 05:00N 62°06' W 074°42'0 0.0 200 / 111020.5 -7.6-11.6
2017-Dec-05 04:00N 62°06' W 074°42'0 0.0 130 / 11019.9 -7.5-11.6
2017-Dec-05 03:00N 62°06' W 074°42'0 0.0 220 / 201018.5 -7.3-12.0
2017-Dec-05 02:00N 62°06' W 074°42'0 0.0 220 / 291017.5 -7.4-12.3
2017-Dec-05 01:00N 62°06' W 074°42'0 0.0 210 / 71018.7 -7.5-12.1
2017-Dec-05 00:00N 62°06' W 074°42'0 0.0 220 / 91019.0 -8.0-12.6
2017-Dec-04 23:00N 62°06' W 074°42'0 0.0 100 / 41019.0 -8.2-13.1
2017-Dec-04 22:00N 62°06' W 074°42'0 0.0 230 / 91018.7 -8.4-13.1
2017-Dec-04 21:00N 62°06' W 074°42'0 0.0 250 / 181017.0 -8.0-13.5
2017-Dec-04 20:00N 62°06' W 074°42'0 0.0 240 / 81017.6 -8.5-13.3
2017-Dec-04 19:00N 62°06' W 074°42'0 0.0 210 / 141016.1 -8.6-13.7
2017-Dec-04 18:00N 62°06' W 074°42'0 0.0 240 / 211013.7 -9.0-13.9
2017-Dec-04 17:00N 62°06' W 074°42'0 0.0 240 / 331012.4 -9.2-14.1
2017-Dec-04 16:00N 62°06' W 074°42'0 0.0 240 / 301012.1 -8.8-14.3
2017-Dec-04 15:00N 62°06' W 074°42'0 0.0 240 / 371010.5 -8.5-13.4-0.6
2017-Dec-04 14:00N 62°06' W 074°42'6 6.0 230 / 71010.8 -6.1-11.1-0.4
2017-Dec-04 13:00N 62°12' W 074°42'3 2.8 250 / 161010.3 -4.1-9.9-0.7
2017-Dec-04 12:00N 62°12' W 074°48'7 6.6 250 / 161009.3 -3.0-7.9-0.6
2017-Dec-04 11:00N 62°18' W 074°42'1514.6 270 / 231007.3 -2.0-5.6-0.4
2017-Dec-04 10:00N 62°30' W 074°24'1413.9 220 / 181007.2 -1.3-4.5-0.5
2017-Dec-04 09:00N 62°30' W 073°54'1010.2 180 / 221008.1 -1.5-5.3-0.5
2017-Dec-04 08:00N 62°36' W 073°36'1312.6 170 / 271007.9 -2.5-6.5-0.4
2017-Dec-04 07:00N 62°30' W 073°12'1111.1 160 / 171010.3 -2.7-6.4-0.5
2017-Dec-04 06:00N 62°30' W 072°48'1312.6 170 / 261011.0 -3.4-7.5-1.0
2017-Dec-04 05:00N 62°24' W 072°24'1312.7 170 / 271011.9 -3.4-6.2-0.6
2017-Dec-04 04:00N 62°18' W 072°00'1312.7 160 / 301012.7 -3.8-6.5-0.7
2017-Dec-04 03:00N 62°12' W 071°36'1111.2 150 / 321013.5 -4.9-6.1-1.0
2017-Dec-04 02:00N 62°12' W 071°12'1515.2 150 / 281015.5 -5.6-7.1-1.0
2017-Dec-04 01:00N 62°06' W 070°42'1616.5 150 / 261017.1 -5.4-7.9-0.4
2017-Dec-04 00:00N 61°54' W 070°18'1414.1 160 / 231018.2 -5.6-8.1-0.5
2017-Dec-03 23:00N 61°54' W 069°48'1312.8 160 / 161019.0 -5.6-8.4-0.7
2017-Dec-03 22:00N 61°48' W 069°24'1515.4 150 / 121019.8 -5.1-8.7-0.4
2017-Dec-03 21:00N 61°42' W 068°54'1312.9 190 / 81020.2 -4.8-9.3-0.3
2017-Dec-03 20:00N 61°36' W 068°30'1111.4 090 / 91020.2 -4.9-8.7-0.7
2017-Dec-03 19:00N 61°36' W 068°06'1615.5 060 / 61020.3 -4.8-8.6-0.9
2017-Dec-03 18:00N 61°30' W 067°36'1312.9 230 / 51019.9 -4.7-9.2-0.5
2017-Dec-03 17:00N 61°24' W 067°12'1313.0 250 / 71019.4 -4.5-8.8-0.8
2017-Dec-03 16:00N 61°18' W 066°48'1211.5 230 / 41018.8 -4.3-7.5-0.7
2017-Dec-03 15:00N 61°18' W 066°24'1313.0 240 / 71018.6 -4.5-5.8-0.7
2017-Dec-03 14:00N 61°12' W 066°00'1313.0 230 / 91017.9 -4.1-7.4-1.1
2017-Dec-03 13:00N 61°06' W 065°36'1918.9 250 / 91017.5 -4.2-7.8-1.0
2017-Dec-03 12:00N 60°54' W 065°06'1514.6 250 / 131016.6 -4.0-7.3-0.8
2017-Dec-03 11:00N 60°54' W 064°36'1615.8 240 / 161016.4 -3.7-7.4-0.4
2017-Dec-03 10:00N 60°48' W 064°06'1514.9 220 / 191016.2 -4.4-6.7 0.3
2017-Dec-03 09:00N 60°36' W 063°48'1514.9 230 / 151016.5 -4.7-7.5 0.3
2017-Dec-03 08:00N 60°24' W 063°30'1313.4 240 / 111017.2 -5.1-7.7-0.0
2017-Dec-03 07:00N 60°12' W 063°18'1313.4 240 / 81017.2 -3.8-9.9 0.1
2017-Dec-03 06:00N 60°06' W 062°54'1313.4 220 / 71017.1 -3.9-10.3 0.4
2017-Dec-03 05:00N 59°54' W 062°42'1313.4 210 / 71016.9 -4.0-10.5 0.5
2017-Dec-03 04:00N 59°42' W 062°30'1515.1 200 / 101017.3 -4.2-9.8-0.0
2017-Dec-03 03:00N 59°30' W 062°12'1110.9 180 / 51017.6 -4.1-10.7-0.0
2017-Dec-03 02:00N 59°24' W 061°54'1515.1 210 / 61018.0 -4.2-8.7 0.4
2017-Dec-03 01:00N 59°12' W 061°36'2020.2 190 / 91018.3 -4.1-8.9 0.3
2017-Dec-03 00:00N 58°54' W 061°18'9 8.6 200 / 111018.3 -4.3-10.6 0.4
2017-Dec-02 23:00N 58°48' W 061°06'1515.2 210 / 131018.8 -4.2-10.2 0.3
2017-Dec-02 22:00N 58°36' W 060°48'1515.2 240 / 111019.1 -4.1-10.2 0.3
2017-Dec-02 21:00N 58°24' W 060°30'1515.3 250 / 61019.5 -4.1-9.1 0.2
2017-Dec-02 20:00N 58°12' W 060°12'9 8.7 260 / 71019.6 -3.7-8.1 0.1
2017-Dec-02 19:00N 58°06' W 060°00'1413.6 280 / 91019.0 -3.1-7.1-0.0
2017-Dec-02 18:00N 57°54' W 059°48'1515.4 280 / 111018.9 -2.8-6.0 0.2
2017-Dec-02 17:00N 57°42' W 059°30'9 8.8 290 / 111018.7 -2.8-4.9-0.0
2017-Dec-02 16:00N 57°36' W 059°18'1413.6 270 / 131018.6 -2.8-5.5 0.2
2017-Dec-02 15:00N 57°24' W 059°06'1111.4
2017-Dec-02 14:00N 57°18' W 058°48'1413.6 260 / 71019.3 -3.0-7.2-0.1
2017-Dec-02 13:00N 57°06' W 058°36'1413.7 250 / 91019.1 -3.3-8.0 0.2
2017-Dec-02 12:00N 56°54' W 058°24'1615.5 300 / 101018.7 -2.7-6.7 0.1
2017-Dec-02 11:00N 56°42' W 058°06'9 8.9 260 / 131018.1 -2.3-6.7 0.1
2017-Dec-02 10:00N 56°36' W 057°54'1413.7 260 / 131018.2 -1.9-6.9 0.4
2017-Dec-02 09:00N 56°24' W 057°42'1615.6 260 / 141017.8 -1.6-6.4 0.1
2017-Dec-02 08:00N 56°12' W 057°24'9 9.0 260 / 121018.0 -1.3-5.9 0.1
2017-Dec-02 07:00N 56°06' W 057°12'1615.7 250 / 141018.1 -1.0-4.9 0.2
2017-Dec-02 06:00N 55°54' W 056°54'7 6.9 260 / 81018.0 -0.5-3.4 0.2
2017-Dec-02 05:00N 55°48' W 056°48'1413.8 240 / 111017.9 -0.2-3.4 0.2
2017-Dec-02 04:00N 55°36' W 056°36'1211.8 220 / 121018.1 -0.0-2.2-0.0
2017-Dec-02 03:00N 55°30' W 056°18'1413.8 210 / 111017.9 0.3-1.2 0.6
2017-Dec-02 02:00N 55°18' W 056°06'1413.8 210 / 151017.9 0.5-0.9 0.7
2017-Dec-02 01:00N 55°06' W 055°54'1413.8 200 / 201018.5 0.7-1.2 0.8
2017-Dec-02 00:00N 54°54' W 055°42'1212.0 190 / 191018.5 0.5-1.4 0.4
2017-Dec-01 23:00N 54°48' W 055°24'1212.0 190 / 241018.5 0.6-1.4 0.9
2017-Dec-01 22:00N 54°36' W 055°24'1818.3 190 / 211018.7 0.7-1.5 0.8
2017-Dec-01 21:00N 54°18' W 055°18'1212.0 190 / 221019.0 0.8-1.5 0.8
2017-Dec-01 20:00N 54°06' W 055°18'1312.5 180 / 211019.2 1.6-1.4 1.0
2017-Dec-01 19:00N 53°54' W 055°24'1818.3 190 / 211019.5 0.8-1.7 1.1
2017-Dec-01 18:00N 53°36' W 055°18'1212.0 200 / 201019.7 0.7-1.9 1.3
2017-Dec-01 17:00N 53°24' W 055°18'1212.0 180 / 231019.7 1.6-2.0 1.2
2017-Dec-01 16:00N 53°12' W 055°18'   180 / 171020.5 2.2-1.0 1.2

Dump ship's entire track history